createdAt,value
2018-07-31T00:00:04.801Z,99.90
2018-07-31T00:02:40.137Z,99.90
2018-07-31T00:05:17.933Z,99.90
2018-07-31T00:07:53.785Z,99.90
2018-07-31T00:10:30.904Z,99.90
2018-07-31T00:13:07.049Z,99.90
2018-07-31T00:15:43.921Z,99.90
2018-07-31T00:18:19.980Z,99.90
2018-07-31T00:20:54.897Z,99.90
2018-07-31T00:23:31.365Z,99.90
2018-07-31T00:26:07.438Z,99.90
2018-07-31T00:28:43.371Z,99.90
2018-07-31T00:31:19.942Z,99.90
2018-07-31T00:33:55.492Z,99.90
2018-07-31T00:36:32.874Z,99.90
2018-07-31T00:39:10.160Z,99.90
2018-07-31T00:41:46.342Z,99.90
2018-07-31T00:44:22.279Z,99.90
2018-07-31T00:46:59.257Z,99.90
2018-07-31T00:49:35.414Z,99.90
2018-07-31T00:52:12.430Z,99.90
2018-07-31T00:54:48.974Z,99.90
2018-07-31T00:57:24.206Z,99.90
2018-07-31T01:00:00.681Z,99.90
2018-07-31T01:02:36.240Z,99.90
2018-07-31T01:05:12.279Z,99.90
2018-07-31T01:07:47.927Z,99.90
2018-07-31T01:10:23.490Z,99.90
2018-07-31T01:13:00.032Z,99.90
2018-07-31T01:15:35.472Z,99.90
2018-07-31T01:18:12.150Z,99.90
2018-07-31T01:20:49.965Z,99.90
2018-07-31T01:23:25.083Z,99.90
2018-07-31T01:26:01.033Z,99.90
2018-07-31T01:28:36.482Z,99.90
2018-07-31T01:31:14.389Z,99.90
2018-07-31T01:33:50.142Z,99.90
2018-07-31T01:36:25.972Z,99.90
2018-07-31T01:39:01.327Z,99.90
2018-07-31T01:41:36.557Z,99.90
2018-07-31T01:44:13.109Z,99.90
2018-07-31T01:46:48.160Z,99.90
2018-07-31T01:49:23.709Z,99.90
2018-07-31T01:52:00.387Z,99.90
2018-07-31T01:54:37.058Z,99.90
2018-07-31T01:57:12.620Z,99.90
2018-07-31T01:59:48.481Z,99.90
2018-07-31T02:02:23.685Z,99.90
2018-07-31T02:05:00.354Z,99.90
2018-07-31T02:07:36.167Z,99.90
2018-07-31T02:10:13.221Z,99.90
2018-07-31T02:12:49.326Z,99.90
2018-07-31T02:15:24.689Z,99.90
2018-07-31T02:18:03.017Z,99.90
2018-07-31T02:20:38.242Z,99.90
2018-07-31T02:23:15.119Z,99.90
2018-07-31T02:25:51.481Z,99.90
2018-07-31T02:28:28.112Z,99.90
2018-07-31T02:31:04.020Z,99.90
2018-07-31T02:33:39.249Z,99.90
2018-07-31T02:36:17.242Z,99.90
2018-07-31T02:38:52.674Z,99.90
2018-07-31T02:41:29.880Z,99.90
2018-07-31T02:44:06.765Z,99.90
2018-07-31T02:46:42.311Z,99.90
2018-07-31T02:49:18.662Z,99.90
2018-07-31T02:51:54.508Z,99.90
2018-07-31T02:54:30.279Z,99.90
2018-07-31T02:57:06.027Z,99.90
2018-07-31T02:59:43.505Z,99.90
2018-07-31T03:02:18.842Z,99.90
2018-07-31T03:04:54.288Z,99.90
2018-07-31T03:07:31.275Z,99.90
2018-07-31T03:10:08.239Z,99.90
2018-07-31T03:12:44.912Z,99.90
2018-07-31T03:15:21.254Z,99.90
2018-07-31T03:17:57.954Z,99.90
2018-07-31T03:20:32.341Z,99.90
2018-07-31T03:23:07.706Z,99.90
2018-07-31T03:25:44.072Z,99.90
2018-07-31T03:28:19.982Z,99.90
2018-07-31T03:30:55.905Z,99.90
2018-07-31T03:33:31.122Z,99.90
2018-07-31T03:36:08.618Z,99.90
2018-07-31T03:38:43.741Z,99.90
2018-07-31T03:41:23.606Z,99.90
2018-07-31T03:44:00.458Z,99.90
2018-07-31T03:46:37.031Z,99.90
2018-07-31T03:49:13.197Z,99.90
2018-07-31T03:51:50.374Z,99.90
2018-07-31T03:54:26.025Z,99.90
2018-07-31T03:57:04.037Z,99.90
2018-07-31T03:59:39.471Z,99.90
2018-07-31T04:02:15.033Z,99.90
2018-07-31T04:04:52.210Z,99.90
2018-07-31T04:07:28.056Z,99.90
2018-07-31T04:12:40.577Z,99.90
2018-07-31T04:15:15.721Z,99.90
2018-07-31T04:17:56.383Z,99.90
2018-07-31T04:20:32.754Z,99.90
2018-07-31T04:23:09.522Z,99.90
2018-07-31T04:25:45.058Z,99.90
2018-07-31T04:28:21.345Z,99.90
2018-07-31T04:30:56.767Z,99.90
2018-07-31T04:38:41.152Z,99.90
2018-07-31T04:41:15.526Z,99.90
2018-07-31T04:43:50.621Z,99.90
2018-07-31T04:46:26.868Z,99.90
2018-07-31T04:49:05.686Z,99.90
2018-07-31T04:51:40.175Z,99.90
2018-07-31T04:54:14.525Z,99.90
2018-07-31T04:56:51.536Z,99.90
2018-07-31T04:59:27.850Z,99.90
2018-07-31T05:02:02.165Z,99.90
2018-07-31T05:04:38.550Z,99.90
2018-07-31T05:07:13.281Z,99.90
2018-07-31T05:09:48.095Z,99.90
2018-07-31T05:14:58.683Z,99.90
2018-07-31T05:17:34.484Z,99.90
2018-07-31T05:20:11.317Z,99.90
2018-07-31T05:25:21.427Z,99.90
2018-07-31T05:27:58.163Z,99.90
2018-07-31T05:30:35.227Z,99.90
2018-07-31T05:33:10.245Z,99.90
2018-07-31T05:35:46.237Z,99.90
2018-07-31T05:38:22.267Z,99.90
2018-07-31T05:40:57.930Z,99.90
2018-07-31T05:43:36.029Z,99.90
2018-07-31T05:46:11.819Z,99.90
2018-07-31T05:48:47.520Z,99.90
2018-07-31T05:51:23.157Z,99.90
2018-07-31T05:53:59.353Z,99.90
2018-07-31T05:56:35.511Z,99.90
2018-07-31T05:59:11.979Z,99.90
2018-07-31T06:01:49.844Z,99.90
2018-07-31T06:04:27.982Z,99.90
2018-07-31T06:07:05.917Z,99.90
2018-07-31T06:09:40.126Z,99.90
2018-07-31T06:12:16.180Z,99.90
2018-07-31T06:14:50.985Z,99.90
2018-07-31T06:17:29.564Z,99.90
2018-07-31T06:20:05.857Z,99.90
2018-07-31T06:22:41.914Z,99.90
2018-07-31T06:25:19.475Z,99.90
2018-07-31T06:30:30.459Z,99.90
2018-07-31T06:33:06.515Z,99.90
2018-07-31T06:35:42.093Z,99.90
2018-07-31T06:38:16.733Z,99.90
2018-07-31T06:40:51.348Z,99.90
2018-07-31T06:43:28.633Z,99.90
2018-07-31T06:46:04.394Z,99.90
2018-07-31T06:48:40.704Z,99.90
2018-07-31T06:51:16.383Z,99.90
2018-07-31T06:53:52.247Z,99.90
2018-07-31T06:56:27.193Z,99.90
2018-07-31T06:59:02.517Z,99.90
2018-07-31T07:01:39.572Z,99.90
2018-07-31T07:04:15.137Z,99.90
2018-07-31T07:06:51.652Z,99.90
2018-07-31T07:09:27.762Z,99.90
2018-07-31T07:12:04.256Z,99.90
2018-07-31T07:14:40.395Z,99.90
2018-07-31T07:17:16.147Z,99.90
2018-07-31T07:19:51.905Z,99.90
2018-07-31T07:22:27.684Z,99.90
2018-07-31T07:25:03.974Z,99.90
2018-07-31T07:27:39.774Z,99.90
2018-07-31T07:30:14.967Z,99.90
2018-07-31T07:32:52.081Z,99.90
2018-07-31T07:35:28.437Z,99.90
2018-07-31T07:38:03.663Z,99.90
2018-07-31T07:40:39.838Z,99.90
2018-07-31T07:43:15.733Z,99.90
2018-07-31T07:45:50.502Z,99.90
2018-07-31T07:48:26.136Z,99.90
2018-07-31T07:53:36.332Z,99.90
2018-07-31T07:56:12.215Z,99.90
2018-07-31T07:58:48.721Z,99.90
2018-07-31T08:01:25.714Z,99.90
2018-07-31T08:04:01.429Z,99.90
2018-07-31T08:06:39.599Z,99.90
2018-07-31T08:09:15.266Z,99.90
2018-07-31T08:11:50.695Z,99.90
2018-07-31T08:14:26.658Z,99.90
2018-07-31T08:17:04.760Z,99.90
2018-07-31T08:19:40.090Z,99.90
2018-07-31T08:22:16.201Z,99.90
2018-07-31T08:24:52.001Z,99.90
2018-07-31T08:27:28.170Z,99.90
2018-07-31T08:30:05.942Z,99.90
2018-07-31T08:32:41.407Z,99.90
2018-07-31T08:35:17.367Z,99.90
2018-07-31T08:37:54.082Z,99.90
2018-07-31T08:40:29.257Z,99.90
2018-07-31T08:43:08.002Z,99.90
2018-07-31T08:45:45.302Z,99.90
2018-07-31T08:48:23.185Z,99.90
2018-07-31T08:50:58.813Z,99.90
2018-07-31T08:53:35.926Z,99.90
2018-07-31T08:56:12.162Z,99.90
2018-07-31T08:58:48.848Z,99.90
2018-07-31T09:01:24.676Z,99.90
2018-07-31T09:04:02.588Z,99.90
2018-07-31T09:06:37.047Z,99.90
2018-07-31T09:09:13.726Z,99.90
2018-07-31T09:11:49.425Z,99.90
2018-07-31T09:14:25.911Z,99.90
2018-07-31T09:17:01.749Z,99.90
2018-07-31T09:22:13.884Z,99.90
2018-07-31T09:24:49.747Z,99.90
2018-07-31T09:29:59.785Z,99.90
2018-07-31T09:32:39.845Z,99.90
2018-07-31T09:35:15.643Z,99.90
2018-07-31T09:37:50.308Z,99.90
2018-07-31T09:40:24.986Z,99.90
2018-07-31T09:42:59.342Z,99.90
2018-07-31T09:45:33.894Z,99.90
2018-07-31T09:48:08.170Z,98.90
2018-07-31T09:50:42.665Z,98.30
2018-07-31T09:55:51.065Z,97.30
2018-07-31T09:58:26.778Z,96.40
2018-07-31T10:01:07.925Z,98.20
2018-07-31T10:03:42.463Z,97.40
2018-07-31T10:06:16.993Z,95.00
2018-07-31T10:08:51.473Z,94.10
2018-07-31T10:11:25.725Z,92.40
2018-07-31T10:14:00.101Z,92.40
2018-07-31T10:16:36.305Z,90.20
2018-07-31T10:19:11.870Z,90.20
2018-07-31T10:21:46.453Z,88.60
2018-07-31T10:24:21.305Z,91.10
2018-07-31T10:32:03.917Z,88.90
2018-07-31T10:34:38.439Z,86.10
2018-07-31T10:37:13.485Z,88.30
2018-07-31T10:39:48.106Z,87.80
2018-07-31T10:42:22.311Z,86.50
2018-07-31T10:44:56.993Z,84.50
2018-07-31T10:47:31.261Z,84.80
2018-07-31T10:52:39.663Z,80.50
2018-07-31T10:55:14.258Z,79.10
2018-07-31T10:57:48.769Z,78.40
2018-07-31T11:00:23.365Z,80.90
2018-07-31T11:02:58.353Z,79.90
2018-07-31T11:05:32.819Z,78.70
2018-07-31T11:08:07.394Z,78.20
2018-07-31T11:10:41.737Z,80.10
2018-07-31T11:13:16.274Z,75.70
2018-07-31T11:15:50.698Z,73.40
2018-07-31T11:18:25.042Z,74.10
2018-07-31T11:21:01.276Z,69.40
2018-07-31T11:23:36.551Z,74.60
2018-07-31T11:26:12.047Z,72.40
2018-07-31T11:28:47.127Z,71.00
2018-07-31T11:31:22.672Z,67.50
2018-07-31T11:33:57.856Z,69.30
2018-07-31T11:36:35.355Z,66.40
2018-07-31T11:39:11.763Z,63.80
2018-07-31T11:44:20.674Z,74.70
2018-07-31T11:46:56.083Z,64.00
2018-07-31T11:49:33.495Z,67.70
2018-07-31T11:52:11.064Z,66.80
2018-07-31T11:54:47.271Z,63.00
2018-07-31T11:57:23.967Z,62.70
2018-07-31T12:00:02.589Z,61.80
2018-07-31T12:02:36.937Z,60.00
2018-07-31T12:05:11.361Z,57.20
2018-07-31T12:10:20.189Z,58.70
2018-07-31T12:12:55.395Z,56.60
2018-07-31T12:18:04.311Z,54.70
2018-07-31T12:23:13.102Z,55.10
2018-07-31T12:25:47.645Z,54.20
2018-07-31T12:28:21.877Z,52.50
2018-07-31T12:31:04.952Z,53.30
2018-07-31T12:33:39.501Z,52.00
2018-07-31T12:36:14.825Z,53.20
2018-07-31T12:38:50.691Z,52.10
2018-07-31T12:41:26.815Z,53.30
2018-07-31T12:44:07.766Z,51.10
2018-07-31T12:46:43.630Z,49.70
2018-07-31T12:49:18.494Z,51.50
2018-07-31T12:51:53.090Z,51.40
2018-07-31T12:54:27.973Z,47.50
2018-07-31T12:57:02.309Z,47.50
2018-07-31T13:02:11.365Z,49.80
2018-07-31T13:04:46.117Z,48.40
2018-07-31T13:07:20.374Z,47.80
2018-07-31T13:09:54.915Z,47.20
2018-07-31T13:12:29.649Z,47.20
2018-07-31T13:15:04.146Z,45.70
2018-07-31T13:17:38.686Z,46.50
2018-07-31T13:20:12.994Z,44.90
2018-07-31T13:22:47.512Z,45.00
2018-07-31T13:25:22.593Z,45.30
2018-07-31T13:27:57.546Z,44.80
2018-07-31T13:33:06.141Z,41.50
2018-07-31T13:35:40.546Z,43.40
2018-07-31T13:38:14.845Z,42.00
2018-07-31T13:40:49.363Z,44.40
2018-07-31T13:43:23.795Z,44.60
2018-07-31T13:45:58.080Z,45.20
2018-07-31T13:48:32.419Z,44.10
2018-07-31T13:51:07.004Z,41.90
2018-07-31T13:53:42.962Z,42.30
2018-07-31T13:58:53.480Z,45.80
2018-07-31T14:01:28.597Z,45.50
2018-07-31T14:04:03.585Z,43.30
2018-07-31T14:06:38.098Z,45.70
2018-07-31T14:09:12.713Z,47.00
2018-07-31T14:11:47.316Z,43.40
2018-07-31T14:14:22.146Z,46.30
2018-07-31T14:16:56.684Z,46.90
2018-07-31T14:19:32.057Z,48.20
2018-07-31T14:22:06.547Z,49.60
2018-07-31T14:24:40.877Z,50.50
2018-07-31T14:27:15.368Z,49.80
2018-07-31T14:29:49.798Z,49.10
2018-07-31T14:32:24.385Z,48.40
2018-07-31T14:34:58.841Z,49.10
2018-07-31T14:40:07.626Z,49.20
2018-07-31T14:42:42.374Z,47.90
2018-07-31T14:45:17.086Z,46.50
2018-07-31T14:47:51.639Z,47.10
2018-07-31T14:50:26.233Z,47.80
2018-07-31T14:53:01.027Z,50.50
2018-07-31T14:55:35.529Z,49.80
2018-07-31T14:58:10.311Z,49.50
2018-07-31T15:00:45.092Z,49.20
2018-07-31T15:03:19.723Z,49.20
2018-07-31T15:05:54.119Z,49.70
2018-07-31T15:08:28.760Z,48.00
2018-07-31T15:11:03.057Z,48.20
2018-07-31T15:13:37.465Z,46.90
2018-07-31T15:16:12.056Z,48.90
2018-07-31T15:18:46.301Z,49.10
2018-07-31T15:21:20.734Z,50.30
2018-07-31T15:23:55.247Z,50.10
2018-07-31T15:26:29.637Z,49.10
2018-07-31T15:31:38.382Z,47.90
2018-07-31T15:39:21.781Z,48.40
2018-07-31T15:41:56.221Z,50.70
2018-07-31T15:44:30.596Z,52.40
2018-07-31T15:47:05.193Z,50.50
2018-07-31T15:49:39.922Z,52.10
2018-07-31T15:52:14.568Z,52.50
2018-07-31T15:54:49.305Z,51.70
2018-07-31T15:57:23.777Z,52.50
2018-07-31T16:05:07.232Z,50.90
2018-07-31T16:07:41.921Z,52.60
2018-07-31T16:10:16.284Z,53.10
2018-07-31T16:12:50.738Z,53.50
2018-07-31T16:15:25.738Z,54.00
2018-07-31T16:18:00.366Z,53.50
2018-07-31T16:20:34.871Z,54.90
2018-07-31T16:23:09.640Z,54.60
2018-07-31T16:28:18.886Z,53.70
2018-07-31T16:30:53.736Z,54.00
2018-07-31T16:33:28.245Z,55.50
2018-07-31T16:36:02.986Z,54.30
2018-07-31T16:41:12.345Z,53.90
2018-07-31T16:43:47.452Z,54.30
2018-07-31T16:46:22.177Z,54.20
2018-07-31T16:48:56.986Z,55.10
2018-07-31T16:54:05.674Z,54.90
2018-07-31T16:56:40.451Z,55.10
2018-07-31T17:01:49.405Z,56.10
2018-07-31T17:06:59.097Z,54.90
2018-07-31T17:09:33.471Z,55.70
2018-07-31T17:14:42.417Z,55.90
2018-07-31T17:17:17.185Z,56.60
2018-07-31T17:19:51.796Z,56.90
2018-07-31T17:22:27.254Z,57.70
2018-07-31T17:25:01.876Z,58.30
2018-07-31T17:27:36.427Z,58.20
2018-07-31T17:30:10.870Z,59.40
2018-07-31T17:32:45.361Z,60.40
2018-07-31T17:35:19.783Z,59.30
2018-07-31T17:37:54.314Z,59.00
2018-07-31T17:40:28.945Z,60.10
2018-07-31T17:43:03.284Z,60.00
2018-07-31T17:45:37.923Z,61.20
2018-07-31T17:48:12.282Z,60.70
2018-07-31T17:50:46.709Z,60.40
2018-07-31T17:53:21.089Z,62.10
2018-07-31T17:55:55.733Z,61.40
2018-07-31T17:58:30.326Z,63.00
2018-07-31T18:01:04.980Z,62.10
2018-07-31T18:03:39.685Z,62.90
2018-07-31T18:06:14.307Z,62.80
2018-07-31T18:08:48.773Z,62.00
2018-07-31T18:11:23.331Z,62.90
2018-07-31T18:13:57.907Z,62.30
2018-07-31T18:16:32.085Z,63.50
2018-07-31T18:19:06.872Z,64.70
2018-07-31T18:26:50.175Z,67.80
2018-07-31T18:29:24.850Z,67.00
2018-07-31T18:34:33.834Z,68.20
2018-07-31T18:37:08.766Z,69.30
2018-07-31T18:39:43.473Z,71.30
2018-07-31T18:42:18.251Z,70.80
2018-07-31T18:44:52.563Z,71.10
2018-07-31T18:47:27.321Z,69.80
2018-07-31T18:52:36.137Z,69.90
2018-07-31T18:55:10.402Z,71.50
2018-07-31T18:57:44.765Z,70.30
2018-07-31T19:00:19.294Z,71.40
2018-07-31T19:02:53.656Z,74.90
2018-07-31T19:05:28.298Z,72.40
2018-07-31T19:08:02.508Z,74.30
2018-07-31T19:10:37.012Z,75.90
2018-07-31T19:13:11.478Z,77.00
2018-07-31T19:15:45.569Z,77.90
2018-07-31T19:18:19.886Z,78.40
2018-07-31T19:20:56.429Z,79.10
2018-07-31T19:23:30.777Z,80.30
2018-07-31T19:26:05.420Z,81.70
2018-07-31T19:28:39.812Z,82.90
2018-07-31T19:33:48.395Z,86.00
2018-07-31T19:38:56.937Z,88.40
2018-07-31T19:41:31.477Z,89.20
2018-07-31T19:46:40.052Z,90.50
2018-07-31T19:51:48.524Z,91.60
2018-07-31T19:54:22.916Z,92.20
2018-07-31T19:56:57.231Z,93.00
2018-07-31T19:59:31.610Z,93.50
2018-07-31T20:04:40.378Z,94.60
2018-07-31T20:07:14.748Z,95.20
2018-07-31T20:12:23.164Z,96.20
2018-07-31T20:14:58.133Z,96.90
2018-07-31T20:17:32.368Z,97.70
2018-07-31T20:20:07.341Z,98.70
2018-07-31T20:22:41.532Z,99.90
2018-07-31T20:25:15.897Z,99.80
2018-07-31T20:27:50.510Z,99.90
2018-07-31T20:32:59.229Z,99.90
2018-07-31T20:35:33.600Z,99.90
2018-07-31T20:40:42.958Z,99.90
2018-07-31T20:43:17.928Z,99.90
2018-07-31T20:45:52.458Z,99.90
2018-07-31T20:51:01.033Z,99.90
2018-07-31T20:53:35.421Z,99.90
2018-07-31T20:56:10.029Z,99.90
2018-07-31T20:58:52.145Z,99.90
2018-07-31T21:01:26.834Z,99.90
2018-07-31T21:04:01.601Z,99.90
2018-07-31T21:06:35.997Z,99.90
2018-07-31T21:09:12.074Z,99.90
2018-07-31T21:11:48.724Z,99.90
2018-07-31T21:14:23.472Z,99.90
2018-07-31T21:16:57.904Z,99.90
2018-07-31T21:19:32.258Z,99.90
2018-07-31T21:22:06.912Z,99.90
2018-07-31T21:24:41.717Z,99.90
2018-07-31T21:27:16.229Z,99.90
2018-07-31T21:29:50.534Z,99.90
2018-07-31T21:32:25.305Z,99.90
2018-07-31T21:35:00.134Z,99.90
2018-07-31T21:37:34.653Z,99.90
2018-07-31T21:40:09.327Z,99.90
2018-07-31T21:42:43.746Z,99.90
2018-07-31T21:45:18.411Z,99.90
2018-07-31T21:47:52.638Z,99.90
2018-07-31T21:50:27.748Z,99.90
2018-07-31T21:53:02.221Z,99.90
2018-07-31T21:55:37.077Z,99.90
2018-07-31T21:58:12.563Z,99.90
2018-07-31T22:00:52.558Z,99.90
2018-07-31T22:03:27.199Z,99.90
2018-07-31T22:06:01.875Z,99.90
2018-07-31T22:08:36.825Z,99.90
2018-07-31T22:11:11.162Z,99.90
2018-07-31T22:13:45.451Z,99.90
2018-07-31T22:16:20.209Z,99.90
2018-07-31T22:18:54.661Z,99.90
2018-07-31T22:21:30.087Z,99.90
2018-07-31T22:24:04.337Z,99.90
2018-07-31T22:26:38.906Z,99.90
2018-07-31T22:29:13.161Z,99.90
2018-07-31T22:31:48.064Z,99.90
2018-07-31T22:34:22.637Z,99.90
2018-07-31T22:36:57.260Z,99.90
2018-07-31T22:39:31.742Z,99.90
2018-07-31T22:42:06.227Z,99.90
2018-07-31T22:44:41.169Z,99.90
2018-07-31T22:47:15.548Z,99.90
2018-07-31T22:52:24.036Z,99.90
2018-07-31T22:54:58.335Z,99.90
2018-07-31T22:57:32.646Z,99.90
2018-07-31T23:00:07.388Z,99.90
2018-07-31T23:05:17.431Z,99.90
2018-07-31T23:10:26.729Z,99.90
2018-07-31T23:13:01.109Z,99.90
2018-07-31T23:15:35.737Z,99.90
2018-07-31T23:18:10.113Z,99.90
2018-07-31T23:20:44.369Z,99.90
2018-07-31T23:23:18.757Z,99.90
2018-07-31T23:25:53.294Z,99.90
2018-07-31T23:28:28.020Z,99.90
2018-07-31T23:31:02.824Z,99.90
2018-07-31T23:33:37.584Z,99.90
2018-07-31T23:36:11.908Z,99.90
2018-07-31T23:38:46.300Z,99.90
2018-07-31T23:41:20.800Z,99.90
2018-07-31T23:43:55.215Z,99.90
2018-07-31T23:46:29.697Z,99.90
2018-07-31T23:49:03.900Z,99.90
2018-07-31T23:54:12.586Z,99.90
2018-07-31T23:56:47.042Z,99.90
2018-07-31T23:59:21.322Z,99.90
